sensor_id;sensor_type;location;lat;lon;timestamp;P1;durP1;ratioP1;P2;durP2;ratioP2
22531;SDS011;11432;46.924;7.114;2023-08-06T00:01:50;1.80;;;0.70;;
22531;SDS011;11432;46.924;7.114;2023-08-06T00:04:16;1.92;;;0.82;;
22531;SDS011;11432;46.924;7.114;2023-08-06T00:06:41;1.40;;;0.73;;
22531;SDS011;11432;46.924;7.114;2023-08-06T00:09:07;1.38;;;0.68;;
22531;SDS011;11432;46.924;7.114;2023-08-06T00:11:33;2.17;;;0.70;;
22531;SDS011;11432;46.924;7.114;2023-08-06T00:13:59;1.75;;;0.90;;
22531;SDS011;11432;46.924;7.114;2023-08-06T00:16:24;1.13;;;0.57;;
22531;SDS011;11432;46.924;7.114;2023-08-06T00:18:50;2.65;;;1.02;;
22531;SDS011;11432;46.924;7.114;2023-08-06T00:21:16;1.73;;;0.70;;
22531;SDS011;11432;46.924;7.114;2023-08-06T00:23:41;1.80;;;0.90;;
22531;SDS011;11432;46.924;7.114;2023-08-06T00:26:07;1.60;;;0.68;;
22531;SDS011;11432;46.924;7.114;2023-08-06T00:28:32;1.42;;;0.80;;
22531;SDS011;11432;46.924;7.114;2023-08-06T00:30:58;2.72;;;0.80;;
22531;SDS011;11432;46.924;7.114;2023-08-06T00:33:24;1.40;;;0.90;;
22531;SDS011;11432;46.924;7.114;2023-08-06T00:35:50;1.25;;;0.70;;
22531;SDS011;11432;46.924;7.114;2023-08-06T00:38:16;2.28;;;0.90;;
22531;SDS011;11432;46.924;7.114;2023-08-06T00:40:42;1.08;;;0.60;;
22531;SDS011;11432;46.924;7.114;2023-08-06T00:43:07;2.38;;;0.90;;
22531;SDS011;11432;46.924;7.114;2023-08-06T00:45:33;4.65;;;1.00;;
22531;SDS011;11432;46.924;7.114;2023-08-06T00:48:00;1.23;;;0.77;;
22531;SDS011;11432;46.924;7.114;2023-08-06T00:50:28;1.35;;;0.70;;
22531;SDS011;11432;46.924;7.114;2023-08-06T00:52:54;1.00;;;0.60;;
22531;SDS011;11432;46.924;7.114;2023-08-06T00:55:19;2.63;;;0.80;;
22531;SDS011;11432;46.924;7.114;2023-08-06T00:57:45;2.47;;;0.70;;
22531;SDS011;11432;46.924;7.114;2023-08-06T01:00:11;2.05;;;0.70;;
22531;SDS011;11432;46.924;7.114;2023-08-06T01:02:37;1.33;;;0.60;;
22531;SDS011;11432;46.924;7.114;2023-08-06T01:05:03;1.23;;;0.50;;
22531;SDS011;11432;46.924;7.114;2023-08-06T01:10:19;1.42;;;0.70;;
22531;SDS011;11432;46.924;7.114;2023-08-06T01:15:31;0.95;;;0.60;;
22531;SDS011;11432;46.924;7.114;2023-08-06T01:18:01;0.98;;;0.50;;
22531;SDS011;11432;46.924;7.114;2023-08-06T01:20:31;1.58;;;0.80;;
22531;SDS011;11432;46.924;7.114;2023-08-06T01:22:56;2.00;;;0.70;;
22531;SDS011;11432;46.924;7.114;2023-08-06T01:25:22;1.23;;;0.70;;
22531;SDS011;11432;46.924;7.114;2023-08-06T01:28:26;1.75;;;0.70;;
22531;SDS011;11432;46.924;7.114;2023-08-06T01:30:59;1.63;;;0.60;;
22531;SDS011;11432;46.924;7.114;2023-08-06T01:33:29;1.67;;;0.80;;
22531;SDS011;11432;46.924;7.114;2023-08-06T01:35:57;1.48;;;0.75;;
22531;SDS011;11432;46.924;7.114;2023-08-06T01:38:23;3.17;;;0.90;;
22531;SDS011;11432;46.924;7.114;2023-08-06T01:40:50;1.58;;;0.68;;
22531;SDS011;11432;46.924;7.114;2023-08-06T01:43:16;1.70;;;0.80;;
22531;SDS011;11432;46.924;7.114;2023-08-06T01:45:41;2.70;;;0.70;;
22531;SDS011;11432;46.924;7.114;2023-08-06T01:48:07;1.30;;;0.55;;
22531;SDS011;11432;46.924;7.114;2023-08-06T01:50:33;1.70;;;0.65;;
22531;SDS011;11432;46.924;7.114;2023-08-06T01:52:58;1.63;;;0.70;;
22531;SDS011;11432;46.924;7.114;2023-08-06T01:55:24;1.48;;;0.68;;
22531;SDS011;11432;46.924;7.114;2023-08-06T01:57:50;0.88;;;0.60;;
22531;SDS011;11432;46.924;7.114;2023-08-06T02:00:15;1.98;;;0.63;;
22531;SDS011;11432;46.924;7.114;2023-08-06T02:02:41;2.33;;;0.73;;
22531;SDS011;11432;46.924;7.114;2023-08-06T02:05:06;2.13;;;0.70;;
22531;SDS011;11432;46.924;7.114;2023-08-06T02:07:32;1.13;;;0.60;;
22531;SDS011;11432;46.924;7.114;2023-08-06T02:09:57;0.90;;;0.60;;
22531;SDS011;11432;46.924;7.114;2023-08-06T02:12:23;1.42;;;0.50;;
22531;SDS011;11432;46.924;7.114;2023-08-06T02:14:49;2.03;;;0.63;;
22531;SDS011;11432;46.924;7.114;2023-08-06T02:17:14;1.33;;;0.60;;
22531;SDS011;11432;46.924;7.114;2023-08-06T02:19:40;4.15;;;0.47;;
22531;SDS011;11432;46.924;7.114;2023-08-06T02:22:08;1.30;;;0.60;;
22531;SDS011;11432;46.924;7.114;2023-08-06T02:24:33;1.33;;;0.60;;
22531;SDS011;11432;46.924;7.114;2023-08-06T02:26:59;1.77;;;0.57;;
22531;SDS011;11432;46.924;7.114;2023-08-06T02:29:24;2.22;;;0.63;;
22531;SDS011;11432;46.924;7.114;2023-08-06T02:31:50;0.60;;;0.20;;
22531;SDS011;11432;46.924;7.114;2023-08-06T02:34:16;1.23;;;0.50;;
22531;SDS011;11432;46.924;7.114;2023-08-06T02:36:41;1.83;;;0.65;;
22531;SDS011;11432;46.924;7.114;2023-08-06T02:39:07;1.52;;;0.52;;
22531;SDS011;11432;46.924;7.114;2023-08-06T02:41:32;0.82;;;0.40;;
22531;SDS011;11432;46.924;7.114;2023-08-06T02:43:58;1.13;;;0.50;;
22531;SDS011;11432;46.924;7.114;2023-08-06T02:46:23;5.78;;;0.70;;
22531;SDS011;11432;46.924;7.114;2023-08-06T02:48:49;1.98;;;0.60;;
22531;SDS011;11432;46.924;7.114;2023-08-06T02:51:15;2.80;;;0.60;;
22531;SDS011;11432;46.924;7.114;2023-08-06T02:53:40;1.52;;;0.63;;
22531;SDS011;11432;46.924;7.114;2023-08-06T02:56:06;3.13;;;0.50;;
22531;SDS011;11432;46.924;7.114;2023-08-06T02:58:31;1.48;;;0.52;;
22531;SDS011;11432;46.924;7.114;2023-08-06T03:01:01;1.00;;;0.40;;
22531;SDS011;11432;46.924;7.114;2023-08-06T03:03:28;1.17;;;0.52;;
22531;SDS011;11432;46.924;7.114;2023-08-06T03:05:55;1.08;;;0.40;;
22531;SDS011;11432;46.924;7.114;2023-08-06T03:08:21;3.38;;;0.77;;
22531;SDS011;11432;46.924;7.114;2023-08-06T03:10:47;3.03;;;0.57;;
22531;SDS011;11432;46.924;7.114;2023-08-06T03:13:17;3.45;;;0.63;;
22531;SDS011;11432;46.924;7.114;2023-08-06T03:15:43;1.73;;;0.50;;
22531;SDS011;11432;46.924;7.114;2023-08-06T03:18:16;1.52;;;0.50;;
22531;SDS011;11432;46.924;7.114;2023-08-06T03:20:41;5.22;;;0.80;;
22531;SDS011;11432;46.924;7.114;2023-08-06T03:23:07;1.48;;;0.50;;
22531;SDS011;11432;46.924;7.114;2023-08-06T03:25:34;2.50;;;0.60;;
22531;SDS011;11432;46.924;7.114;2023-08-06T03:28:01;0.80;;;0.40;;
22531;SDS011;11432;46.924;7.114;2023-08-06T03:30:27;2.10;;;0.50;;
22531;SDS011;11432;46.924;7.114;2023-08-06T03:32:52;1.40;;;0.30;;
22531;SDS011;11432;46.924;7.114;2023-08-06T03:35:18;1.33;;;0.47;;
22531;SDS011;11432;46.924;7.114;2023-08-06T03:37:44;0.90;;;0.38;;
22531;SDS011;11432;46.924;7.114;2023-08-06T03:40:09;1.10;;;0.45;;
22531;SDS011;11432;46.924;7.114;2023-08-06T03:42:35;1.20;;;0.35;;
22531;SDS011;11432;46.924;7.114;2023-08-06T03:45:01;1.52;;;0.30;;
22531;SDS011;11432;46.924;7.114;2023-08-06T03:47:26;1.45;;;0.57;;
22531;SDS011;11432;46.924;7.114;2023-08-06T03:49:52;2.25;;;0.57;;
22531;SDS011;11432;46.924;7.114;2023-08-06T03:52:18;0.98;;;0.43;;
22531;SDS011;11432;46.924;7.114;2023-08-06T03:54:43;1.55;;;0.40;;
22531;SDS011;11432;46.924;7.114;2023-08-06T03:57:09;1.02;;;0.40;;
22531;SDS011;11432;46.924;7.114;2023-08-06T03:59:35;1.17;;;0.50;;
22531;SDS011;11432;46.924;7.114;2023-08-06T04:02:01;1.27;;;0.40;;
22531;SDS011;11432;46.924;7.114;2023-08-06T04:04:27;1.95;;;0.65;;
22531;SDS011;11432;46.924;7.114;2023-08-06T04:06:53;0.85;;;0.55;;
22531;SDS011;11432;46.924;7.114;2023-08-06T04:09:18;1.05;;;0.40;;
22531;SDS011;11432;46.924;7.114;2023-08-06T04:11:44;2.08;;;0.60;;
22531;SDS011;11432;46.924;7.114;2023-08-06T04:14:10;2.17;;;0.68;;
22531;SDS011;11432;46.924;7.114;2023-08-06T04:16:35;9.57;;;2.03;;
22531;SDS011;11432;46.924;7.114;2023-08-06T04:19:01;4.57;;;0.88;;
22531;SDS011;11432;46.924;7.114;2023-08-06T04:21:26;3.45;;;0.50;;
22531;SDS011;11432;46.924;7.114;2023-08-06T04:23:52;2.67;;;0.60;;
22531;SDS011;11432;46.924;7.114;2023-08-06T04:26:17;2.55;;;0.40;;
22531;SDS011;11432;46.924;7.114;2023-08-06T04:28:43;1.05;;;0.30;;
22531;SDS011;11432;46.924;7.114;2023-08-06T04:31:09;3.50;;;0.40;;
22531;SDS011;11432;46.924;7.114;2023-08-06T04:33:35;0.75;;;0.20;;
22531;SDS011;11432;46.924;7.114;2023-08-06T04:36:00;0.55;;;0.13;;
22531;SDS011;11432;46.924;7.114;2023-08-06T04:38:26;0.60;;;0.10;;
22531;SDS011;11432;46.924;7.114;2023-08-06T04:40:52;1.85;;;0.15;;
22531;SDS011;11432;46.924;7.114;2023-08-06T04:43:18;0.82;;;0.20;;
22531;SDS011;11432;46.924;7.114;2023-08-06T04:45:51;1.73;;;0.40;;
22531;SDS011;11432;46.924;7.114;2023-08-06T04:48:18;1.48;;;0.30;;
22531;SDS011;11432;46.924;7.114;2023-08-06T04:50:47;1.63;;;0.38;;
22531;SDS011;11432;46.924;7.114;2023-08-06T04:53:14;1.02;;;0.20;;
22531;SDS011;11432;46.924;7.114;2023-08-06T04:55:39;0.15;;;0.10;;
22531;SDS011;11432;46.924;7.114;2023-08-06T04:58:05;1.05;;;0.20;;
22531;SDS011;11432;46.924;7.114;2023-08-06T05:00:31;2.97;;;0.30;;
22531;SDS011;11432;46.924;7.114;2023-08-06T05:02:59;1.92;;;0.30;;
22531;SDS011;11432;46.924;7.114;2023-08-06T05:05:25;0.50;;;0.10;;
22531;SDS011;11432;46.924;7.114;2023-08-06T05:07:51;1.23;;;0.20;;
22531;SDS011;11432;46.924;7.114;2023-08-06T05:10:16;2.08;;;0.20;;
22531;SDS011;11432;46.924;7.114;2023-08-06T05:12:42;1.77;;;0.20;;
22531;SDS011;11432;46.924;7.114;2023-08-06T05:15:07;1.15;;;0.10;;
22531;SDS011;11432;46.924;7.114;2023-08-06T05:17:33;0.35;;;0.13;;
22531;SDS011;11432;46.924;7.114;2023-08-06T05:19:59;0.55;;;0.15;;
22531;SDS011;11432;46.924;7.114;2023-08-06T05:22:25;0.75;;;0.20;;
22531;SDS011;11432;46.924;7.114;2023-08-06T05:24:50;1.98;;;0.10;;
22531;SDS011;11432;46.924;7.114;2023-08-06T05:27:16;0.65;;;0.10;;
22531;SDS011;11432;46.924;7.114;2023-08-06T05:29:44;0.75;;;0.28;;
22531;SDS011;11432;46.924;7.114;2023-08-06T05:32:10;0.32;;;0.10;;
22531;SDS011;11432;46.924;7.114;2023-08-06T05:34:35;0.70;;;0.20;;
22531;SDS011;11432;46.924;7.114;2023-08-06T05:37:01;0.55;;;0.08;;
22531;SDS011;11432;46.924;7.114;2023-08-06T05:39:27;1.45;;;0.10;;
22531;SDS011;11432;46.924;7.114;2023-08-06T05:41:53;0.70;;;0.30;;
22531;SDS011;11432;46.924;7.114;2023-08-06T05:44:20;0.57;;;0.10;;
22531;SDS011;11432;46.924;7.114;2023-08-06T05:46:46;1.50;;;0.20;;
22531;SDS011;11432;46.924;7.114;2023-08-06T05:49:11;1.10;;;0.20;;
22531;SDS011;11432;46.924;7.114;2023-08-06T05:51:38;3.05;;;0.35;;
22531;SDS011;11432;46.924;7.114;2023-08-06T05:54:04;0.10;;;0.05;;
22531;SDS011;11432;46.924;7.114;2023-08-06T05:56:30;1.27;;;0.20;;
22531;SDS011;11432;46.924;7.114;2023-08-06T05:58:56;1.20;;;0.20;;
22531;SDS011;11432;46.924;7.114;2023-08-06T06:01:21;1.30;;;0.10;;
22531;SDS011;11432;46.924;7.114;2023-08-06T06:03:47;2.47;;;0.20;;
22531;SDS011;11432;46.924;7.114;2023-08-06T06:06:12;0.82;;;0.20;;
22531;SDS011;11432;46.924;7.114;2023-08-06T06:08:38;1.77;;;0.25;;
22531;SDS011;11432;46.924;7.114;2023-08-06T06:11:04;0.60;;;0.30;;
22531;SDS011;11432;46.924;7.114;2023-08-06T06:13:30;0.93;;;0.10;;
22531;SDS011;11432;46.924;7.114;2023-08-06T06:15:55;2.08;;;0.30;;
22531;SDS011;11432;46.924;7.114;2023-08-06T06:18:21;2.00;;;0.20;;
22531;SDS011;11432;46.924;7.114;2023-08-06T06:20:47;1.08;;;0.20;;
22531;SDS011;11432;46.924;7.114;2023-08-06T06:23:13;1.65;;;0.20;;
22531;SDS011;11432;46.924;7.114;2023-08-06T06:25:49;0.45;;;0.10;;
22531;SDS011;11432;46.924;7.114;2023-08-06T06:30:45;1.10;;;0.20;;
22531;SDS011;11432;46.924;7.114;2023-08-06T06:33:10;1.27;;;0.13;;
22531;SDS011;11432;46.924;7.114;2023-08-06T06:35:36;2.58;;;0.20;;
22531;SDS011;11432;46.924;7.114;2023-08-06T06:38:02;1.20;;;0.30;;
22531;SDS011;11432;46.924;7.114;2023-08-06T06:40:28;0.70;;;0.20;;
22531;SDS011;11432;46.924;7.114;2023-08-06T06:42:54;1.08;;;0.20;;
22531;SDS011;11432;46.924;7.114;2023-08-06T06:45:19;1.88;;;0.30;;
22531;SDS011;11432;46.924;7.114;2023-08-06T06:47:45;3.08;;;0.38;;
22531;SDS011;11432;46.924;7.114;2023-08-06T06:50:10;1.85;;;0.20;;
22531;SDS011;11432;46.924;7.114;2023-08-06T06:52:36;2.15;;;0.28;;
22531;SDS011;11432;46.924;7.114;2023-08-06T06:55:02;0.60;;;0.20;;
22531;SDS011;11432;46.924;7.114;2023-08-06T06:57:28;1.00;;;0.17;;
22531;SDS011;11432;46.924;7.114;2023-08-06T06:59:54;1.45;;;0.35;;
22531;SDS011;11432;46.924;7.114;2023-08-06T07:02:19;2.65;;;0.30;;
22531;SDS011;11432;46.924;7.114;2023-08-06T07:04:45;1.05;;;0.20;;
22531;SDS011;11432;46.924;7.114;2023-08-06T07:07:11;0.95;;;0.30;;
22531;SDS011;11432;46.924;7.114;2023-08-06T07:09:36;0.60;;;0.30;;
22531;SDS011;11432;46.924;7.114;2023-08-06T07:12:02;1.52;;;0.20;;
22531;SDS011;11432;46.924;7.114;2023-08-06T07:14:28;1.92;;;0.20;;
22531;SDS011;11432;46.924;7.114;2023-08-06T07:16:54;1.83;;;0.28;;
22531;SDS011;11432;46.924;7.114;2023-08-06T07:19:19;2.33;;;0.30;;
22531;SDS011;11432;46.924;7.114;2023-08-06T07:21:45;1.17;;;0.20;;
22531;SDS011;11432;46.924;7.114;2023-08-06T07:24:11;3.03;;;0.80;;
22531;SDS011;11432;46.924;7.114;2023-08-06T07:26:37;3.72;;;0.40;;
22531;SDS011;11432;46.924;7.114;2023-08-06T07:29:03;1.45;;;0.50;;
22531;SDS011;11432;46.924;7.114;2023-08-06T07:31:29;1.88;;;0.43;;
22531;SDS011;11432;46.924;7.114;2023-08-06T07:33:54;2.40;;;0.40;;
22531;SDS011;11432;46.924;7.114;2023-08-06T07:36:20;1.40;;;0.38;;
22531;SDS011;11432;46.924;7.114;2023-08-06T07:38:45;2.25;;;0.30;;
22531;SDS011;11432;46.924;7.114;2023-08-06T07:41:12;3.53;;;0.75;;
22531;SDS011;11432;46.924;7.114;2023-08-06T07:43:38;2.58;;;0.38;;
22531;SDS011;11432;46.924;7.114;2023-08-06T07:46:03;1.83;;;0.35;;
22531;SDS011;11432;46.924;7.114;2023-08-06T07:48:29;4.43;;;0.50;;
22531;SDS011;11432;46.924;7.114;2023-08-06T07:50:55;1.15;;;0.20;;
22531;SDS011;11432;46.924;7.114;2023-08-06T07:53:21;0.43;;;0.20;;
22531;SDS011;11432;46.924;7.114;2023-08-06T07:55:51;0.47;;;0.00;;
22531;SDS011;11432;46.924;7.114;2023-08-06T07:58:18;1.02;;;0.10;;
22531;SDS011;11432;46.924;7.114;2023-08-06T08:00:45;0.20;;;0.10;;
22531;SDS011;11432;46.924;7.114;2023-08-06T08:03:12;0.35;;;0.05;;
22531;SDS011;11432;46.924;7.114;2023-08-06T08:05:39;0.00;;;0.00;;
22531;SDS011;11432;46.924;7.114;2023-08-06T08:08:06;0.05;;;0.00;;
22531;SDS011;11432;46.924;7.114;2023-08-06T08:10:32;0.30;;;0.10;;
22531;SDS011;11432;46.924;7.114;2023-08-06T08:12:58;0.20;;;0.10;;
22531;SDS011;11432;46.924;7.114;2023-08-06T08:15:24;0.32;;;0.03;;
22531;SDS011;11432;46.924;7.114;2023-08-06T08:17:51;0.10;;;0.10;;
22531;SDS011;11432;46.924;7.114;2023-08-06T08:20:17;0.17;;;0.00;;
22531;SDS011;11432;46.924;7.114;2023-08-06T08:22:43;0.20;;;0.10;;
22531;SDS011;11432;46.924;7.114;2023-08-06T08:25:08;0.35;;;0.20;;
22531;SDS011;11432;46.924;7.114;2023-08-06T08:27:34;0.32;;;0.00;;
22531;SDS011;11432;46.924;7.114;2023-08-06T08:30:00;0.22;;;0.00;;
22531;SDS011;11432;46.924;7.114;2023-08-06T08:32:25;0.22;;;0.00;;
22531;SDS011;11432;46.924;7.114;2023-08-06T08:34:51;0.28;;;0.00;;
22531;SDS011;11432;46.924;7.114;2023-08-06T08:37:16;0.00;;;0.00;;
22531;SDS011;11432;46.924;7.114;2023-08-06T08:39:42;0.00;;;0.00;;
22531;SDS011;11432;46.924;7.114;2023-08-06T08:42:08;0.20;;;0.10;;
22531;SDS011;11432;46.924;7.114;2023-08-06T08:44:35;0.10;;;0.05;;
22531;SDS011;11432;46.924;7.114;2023-08-06T08:47:04;0.35;;;0.10;;
22531;SDS011;11432;46.924;7.114;2023-08-06T08:49:36;0.30;;;0.10;;
22531;SDS011;11432;46.924;7.114;2023-08-06T08:52:02;0.57;;;0.10;;
22531;SDS011;11432;46.924;7.114;2023-08-06T08:54:32;0.55;;;0.00;;
22531;SDS011;11432;46.924;7.114;2023-08-06T08:56:59;0.60;;;0.10;;
22531;SDS011;11432;46.924;7.114;2023-08-06T08:59:25;0.22;;;0.10;;
22531;SDS011;11432;46.924;7.114;2023-08-06T09:01:51;0.35;;;0.10;;
22531;SDS011;11432;46.924;7.114;2023-08-06T09:04:18;2.22;;;0.20;;
22531;SDS011;11432;46.924;7.114;2023-08-06T09:06:46;0.20;;;0.10;;
22531;SDS011;11432;46.924;7.114;2023-08-06T09:09:15;0.20;;;0.10;;
22531;SDS011;11432;46.924;7.114;2023-08-06T09:11:47;0.38;;;0.10;;
22531;SDS011;11432;46.924;7.114;2023-08-06T09:14:14;0.40;;;0.08;;
22531;SDS011;11432;46.924;7.114;2023-08-06T09:16:40;0.57;;;0.20;;
22531;SDS011;11432;46.924;7.114;2023-08-06T09:19:09;0.22;;;0.10;;
22531;SDS011;11432;46.924;7.114;2023-08-06T09:21:40;0.25;;;0.10;;
22531;SDS011;11432;46.924;7.114;2023-08-06T09:24:10;0.38;;;0.20;;
22531;SDS011;11432;46.924;7.114;2023-08-06T09:26:37;0.20;;;0.10;;
22531;SDS011;11432;46.924;7.114;2023-08-06T09:29:08;1.08;;;0.10;;
22531;SDS011;11432;46.924;7.114;2023-08-06T09:32:09;0.03;;;0.03;;
22531;SDS011;11432;46.924;7.114;2023-08-06T09:34:28;0.10;;;0.10;;
22531;SDS011;11432;46.924;7.114;2023-08-06T09:36:54;0.40;;;0.10;;
22531;SDS011;11432;46.924;7.114;2023-08-06T09:39:21;0.85;;;0.20;;
22531;SDS011;11432;46.924;7.114;2023-08-06T09:41:55;0.10;;;0.10;;
22531;SDS011;11432;46.924;7.114;2023-08-06T09:44:25;0.38;;;0.17;;
22531;SDS011;11432;46.924;7.114;2023-08-06T09:46:56;0.40;;;0.10;;
22531;SDS011;11432;46.924;7.114;2023-08-06T09:49:26;0.43;;;0.10;;
22531;SDS011;11432;46.924;7.114;2023-08-06T09:51:53;0.10;;;0.10;;
22531;SDS011;11432;46.924;7.114;2023-08-06T09:54:24;0.10;;;0.10;;
22531;SDS011;11432;46.924;7.114;2023-08-06T09:56:52;1.25;;;0.00;;
22531;SDS011;11432;46.924;7.114;2023-08-06T10:01:48;0.85;;;0.30;;
22531;SDS011;11432;46.924;7.114;2023-08-06T10:04:14;1.70;;;0.10;;
22531;SDS011;11432;46.924;7.114;2023-08-06T10:06:46;0.22;;;0.10;;
22531;SDS011;11432;46.924;7.114;2023-08-06T10:09:12;0.55;;;0.10;;
22531;SDS011;11432;46.924;7.114;2023-08-06T10:11:38;0.22;;;0.10;;
22531;SDS011;11432;46.924;7.114;2023-08-06T10:14:24;1.58;;;0.20;;
22531;SDS011;11432;46.924;7.114;2023-08-06T10:16:52;0.15;;;0.13;;
22531;SDS011;11432;46.924;7.114;2023-08-06T10:19:19;0.73;;;0.20;;
22531;SDS011;11432;46.924;7.114;2023-08-06T10:24:53;0.10;;;0.10;;
22531;SDS011;11432;46.924;7.114;2023-08-06T10:27:21;0.20;;;0.00;;
22531;SDS011;11432;46.924;7.114;2023-08-06T10:29:47;0.30;;;0.10;;
22531;SDS011;11432;46.924;7.114;2023-08-06T10:32:14;0.17;;;0.08;;
22531;SDS011;11432;46.924;7.114;2023-08-06T10:34:58;1.50;;;0.20;;
22531;SDS011;11432;46.924;7.114;2023-08-06T10:37:35;2.45;;;0.17;;
22531;SDS011;11432;46.924;7.114;2023-08-06T10:40:02;0.63;;;0.22;;
22531;SDS011;11432;46.924;7.114;2023-08-06T10:42:28;0.30;;;0.10;;
22531;SDS011;11432;46.924;7.114;2023-08-06T10:47:45;0.38;;;0.15;;
22531;SDS011;11432;46.924;7.114;2023-08-06T10:50:14;0.10;;;0.10;;
22531;SDS011;11432;46.924;7.114;2023-08-06T10:52:46;0.55;;;0.10;;
22531;SDS011;11432;46.924;7.114;2023-08-06T10:55:13;0.20;;;0.10;;
22531;SDS011;11432;46.924;7.114;2023-08-06T10:57:39;0.73;;;0.17;;
22531;SDS011;11432;46.924;7.114;2023-08-06T11:00:05;0.17;;;0.10;;
22531;SDS011;11432;46.924;7.114;2023-08-06T11:02:33;0.25;;;0.10;;
22531;SDS011;11432;46.924;7.114;2023-08-06T11:05:04;0.13;;;0.10;;
22531;SDS011;11432;46.924;7.114;2023-08-06T11:07:33;1.05;;;0.20;;
22531;SDS011;11432;46.924;7.114;2023-08-06T11:10:02;0.05;;;0.05;;
22531;SDS011;11432;46.924;7.114;2023-08-06T11:12:29;0.20;;;0.20;;
22531;SDS011;11432;46.924;7.114;2023-08-06T11:14:56;0.95;;;0.10;;
22531;SDS011;11432;46.924;7.114;2023-08-06T11:17:22;0.73;;;0.22;;
22531;SDS011;11432;46.924;7.114;2023-08-06T11:19:47;1.52;;;0.10;;
22531;SDS011;11432;46.924;7.114;2023-08-06T11:22:14;0.20;;;0.10;;
22531;SDS011;11432;46.924;7.114;2023-08-06T11:24:40;0.85;;;0.40;;
22531;SDS011;11432;46.924;7.114;2023-08-06T11:27:15;0.93;;;0.10;;
22531;SDS011;11432;46.924;7.114;2023-08-06T11:29:41;1.55;;;0.32;;
22531;SDS011;11432;46.924;7.114;2023-08-06T11:32:07;0.28;;;0.00;;
22531;SDS011;11432;46.924;7.114;2023-08-06T11:34:34;0.40;;;0.10;;
22531;SDS011;11432;46.924;7.114;2023-08-06T11:37:00;0.98;;;0.20;;
22531;SDS011;11432;46.924;7.114;2023-08-06T11:39:27;0.10;;;0.10;;
22531;SDS011;11432;46.924;7.114;2023-08-06T11:41:53;0.55;;;0.10;;
22531;SDS011;11432;46.924;7.114;2023-08-06T11:44:19;0.52;;;0.10;;
22531;SDS011;11432;46.924;7.114;2023-08-06T11:46:51;0.60;;;0.20;;
22531;SDS011;11432;46.924;7.114;2023-08-06T11:49:17;0.55;;;0.10;;
22531;SDS011;11432;46.924;7.114;2023-08-06T11:51:47;0.22;;;0.10;;
22531;SDS011;11432;46.924;7.114;2023-08-06T11:54:12;0.10;;;0.10;;
22531;SDS011;11432;46.924;7.114;2023-08-06T11:56:38;0.77;;;0.20;;
22531;SDS011;11432;46.924;7.114;2023-08-06T11:59:04;0.65;;;0.20;;
22531;SDS011;11432;46.924;7.114;2023-08-06T12:01:30;0.60;;;0.20;;
22531;SDS011;11432;46.924;7.114;2023-08-06T12:03:59;1.13;;;0.20;;
22531;SDS011;11432;46.924;7.114;2023-08-06T12:06:28;1.02;;;0.15;;
22531;SDS011;11432;46.924;7.114;2023-08-06T12:08:53;0.95;;;0.30;;
22531;SDS011;11432;46.924;7.114;2023-08-06T12:11:20;0.65;;;0.20;;
22531;SDS011;11432;46.924;7.114;2023-08-06T12:13:50;0.70;;;0.20;;
22531;SDS011;11432;46.924;7.114;2023-08-06T12:16:16;1.48;;;0.30;;
22531;SDS011;11432;46.924;7.114;2023-08-06T12:18:43;0.28;;;0.22;;
22531;SDS011;11432;46.924;7.114;2023-08-06T12:21:09;2.13;;;0.30;;
22531;SDS011;11432;46.924;7.114;2023-08-06T12:23:35;0.63;;;0.20;;
22531;SDS011;11432;46.924;7.114;2023-08-06T12:26:01;1.55;;;0.30;;
22531;SDS011;11432;46.924;7.114;2023-08-06T12:28:26;0.20;;;0.20;;
22531;SDS011;11432;46.924;7.114;2023-08-06T12:30:52;2.17;;;0.28;;
22531;SDS011;11432;46.924;7.114;2023-08-06T12:33:20;0.60;;;0.20;;
22531;SDS011;11432;46.924;7.114;2023-08-06T12:35:45;0.50;;;0.13;;
22531;SDS011;11432;46.924;7.114;2023-08-06T12:38:11;1.20;;;0.20;;
22531;SDS011;11432;46.924;7.114;2023-08-06T12:40:38;0.32;;;0.20;;
22531;SDS011;11432;46.924;7.114;2023-08-06T12:43:04;0.40;;;0.20;;
22531;SDS011;11432;46.924;7.114;2023-08-06T12:45:29;0.93;;;0.30;;
22531;SDS011;11432;46.924;7.114;2023-08-06T12:47:55;1.23;;;0.28;;
22531;SDS011;11432;46.924;7.114;2023-08-06T12:50:21;1.95;;;0.30;;
22531;SDS011;11432;46.924;7.114;2023-08-06T12:52:46;0.35;;;0.10;;
22531;SDS011;11432;46.924;7.114;2023-08-06T12:55:12;1.50;;;0.30;;
22531;SDS011;11432;46.924;7.114;2023-08-06T12:57:37;0.77;;;0.30;;
22531;SDS011;11432;46.924;7.114;2023-08-06T13:00:03;1.05;;;0.20;;
22531;SDS011;11432;46.924;7.114;2023-08-06T13:02:30;0.65;;;0.20;;
22531;SDS011;11432;46.924;7.114;2023-08-06T13:04:55;0.57;;;0.20;;
22531;SDS011;11432;46.924;7.114;2023-08-06T13:07:21;0.52;;;0.30;;
22531;SDS011;11432;46.924;7.114;2023-08-06T13:09:46;0.40;;;0.20;;
22531;SDS011;11432;46.924;7.114;2023-08-06T13:12:12;0.40;;;0.20;;
22531;SDS011;11432;46.924;7.114;2023-08-06T13:14:38;1.85;;;0.30;;
22531;SDS011;11432;46.924;7.114;2023-08-06T13:17:03;0.95;;;0.30;;
22531;SDS011;11432;46.924;7.114;2023-08-06T13:19:31;1.65;;;0.10;;
22531;SDS011;11432;46.924;7.114;2023-08-06T13:24:27;0.35;;;0.20;;
22531;SDS011;11432;46.924;7.114;2023-08-06T13:26:53;0.63;;;0.20;;
22531;SDS011;11432;46.924;7.114;2023-08-06T13:29:19;0.60;;;0.30;;
22531;SDS011;11432;46.924;7.114;2023-08-06T13:31:45;0.63;;;0.35;;
22531;SDS011;11432;46.924;7.114;2023-08-06T13:34:10;0.45;;;0.22;;
22531;SDS011;11432;46.924;7.114;2023-08-06T13:36:36;0.30;;;0.15;;
22531;SDS011;11432;46.924;7.114;2023-08-06T13:39:02;1.20;;;0.20;;
22531;SDS011;11432;46.924;7.114;2023-08-06T13:41:28;0.75;;;0.30;;
22531;SDS011;11432;46.924;7.114;2023-08-06T13:43:54;0.50;;;0.30;;
22531;SDS011;11432;46.924;7.114;2023-08-06T13:46:19;0.20;;;0.10;;
22531;SDS011;11432;46.924;7.114;2023-08-06T13:48:45;1.25;;;0.30;;
22531;SDS011;11432;46.924;7.114;2023-08-06T13:51:12;0.57;;;0.30;;
22531;SDS011;11432;46.924;7.114;2023-08-06T13:53:38;1.88;;;0.30;;
22531;SDS011;11432;46.924;7.114;2023-08-06T13:56:05;0.47;;;0.25;;
22531;SDS011;11432;46.924;7.114;2023-08-06T13:58:31;0.88;;;0.30;;
22531;SDS011;11432;46.924;7.114;2023-08-06T14:00:57;0.20;;;0.20;;
22531;SDS011;11432;46.924;7.114;2023-08-06T14:03:23;1.25;;;0.30;;
22531;SDS011;11432;46.924;7.114;2023-08-06T14:05:48;1.02;;;0.20;;
22531;SDS011;11432;46.924;7.114;2023-08-06T14:08:15;0.88;;;0.20;;
22531;SDS011;11432;46.924;7.114;2023-08-06T14:10:43;0.75;;;0.20;;
22531;SDS011;11432;46.924;7.114;2023-08-06T14:13:09;0.40;;;0.30;;
22531;SDS011;11432;46.924;7.114;2023-08-06T14:15:35;0.85;;;0.25;;
22531;SDS011;11432;46.924;7.114;2023-08-06T14:18:01;0.65;;;0.35;;
22531;SDS011;11432;46.924;7.114;2023-08-06T14:20:27;0.68;;;0.30;;
22531;SDS011;11432;46.924;7.114;2023-08-06T14:22:53;0.90;;;0.40;;
22531;SDS011;11432;46.924;7.114;2023-08-06T14:25:19;0.75;;;0.30;;
22531;SDS011;11432;46.924;7.114;2023-08-06T14:27:44;0.40;;;0.30;;
22531;SDS011;11432;46.924;7.114;2023-08-06T14:30:10;0.30;;;0.20;;
22531;SDS011;11432;46.924;7.114;2023-08-06T14:32:36;0.65;;;0.28;;
22531;SDS011;11432;46.924;7.114;2023-08-06T14:35:02;0.10;;;0.10;;
22531;SDS011;11432;46.924;7.114;2023-08-06T14:37:27;0.50;;;0.30;;
22531;SDS011;11432;46.924;7.114;2023-08-06T14:39:53;3.13;;;0.40;;
22531;SDS011;11432;46.924;7.114;2023-08-06T14:42:19;1.42;;;0.20;;
22531;SDS011;11432;46.924;7.114;2023-08-06T14:44:44;2.00;;;0.40;;
22531;SDS011;11432;46.924;7.114;2023-08-06T14:47:10;1.23;;;0.35;;
22531;SDS011;11432;46.924;7.114;2023-08-06T14:49:36;0.52;;;0.20;;
22531;SDS011;11432;46.924;7.114;2023-08-06T14:52:02;1.77;;;0.25;;
22531;SDS011;11432;46.924;7.114;2023-08-06T14:54:28;0.82;;;0.30;;
22531;SDS011;11432;46.924;7.114;2023-08-06T14:56:54;0.57;;;0.28;;
22531;SDS011;11432;46.924;7.114;2023-08-06T14:59:19;0.70;;;0.30;;
22531;SDS011;11432;46.924;7.114;2023-08-06T15:01:45;0.40;;;0.17;;
22531;SDS011;11432;46.924;7.114;2023-08-06T15:04:11;0.52;;;0.20;;